sensor_id;sensor_type;location;lat;lon;timestamp;P1;durP1;ratioP1;P2;durP2;ratioP2
69534;SDS011;56754;51.568;5.048;2023-06-22T00:00:58;4.20;;;1.63;;
69534;SDS011;56754;51.568;5.048;2023-06-22T00:03:24;4.20;;;1.75;;
69534;SDS011;56754;51.568;5.048;2023-06-22T00:05:50;4.50;;;2.03;;
69534;SDS011;56754;51.568;5.048;2023-06-22T00:08:17;4.47;;;1.73;;
69534;SDS011;56754;51.568;5.048;2023-06-22T00:10:43;4.10;;;1.83;;
69534;SDS011;56754;51.568;5.048;2023-06-22T00:13:10;4.17;;;1.70;;
69534;SDS011;56754;51.568;5.048;2023-06-22T00:15:36;4.63;;;1.85;;
69534;SDS011;56754;51.568;5.048;2023-06-22T00:18:04;4.30;;;1.95;;
69534;SDS011;56754;51.568;5.048;2023-06-22T00:20:31;4.13;;;1.92;;
69534;SDS011;56754;51.568;5.048;2023-06-22T00:22:57;4.87;;;1.87;;
69534;SDS011;56754;51.568;5.048;2023-06-22T00:25:22;4.65;;;2.08;;
69534;SDS011;56754;51.568;5.048;2023-06-22T00:27:48;7.37;;;1.97;;
69534;SDS011;56754;51.568;5.048;2023-06-22T00:30:17;5.03;;;2.00;;
69534;SDS011;56754;51.568;5.048;2023-06-22T00:32:43;4.85;;;1.90;;
69534;SDS011;56754;51.568;5.048;2023-06-22T00:35:10;5.03;;;1.80;;
69534;SDS011;56754;51.568;5.048;2023-06-22T00:37:36;4.70;;;1.95;;
69534;SDS011;56754;51.568;5.048;2023-06-22T00:40:02;4.63;;;2.10;;
69534;SDS011;56754;51.568;5.048;2023-06-22T00:42:28;4.40;;;1.90;;
69534;SDS011;56754;51.568;5.048;2023-06-22T00:44:53;5.30;;;2.20;;
69534;SDS011;56754;51.568;5.048;2023-06-22T00:47:18;4.53;;;2.23;;
69534;SDS011;56754;51.568;5.048;2023-06-22T00:49:44;4.10;;;2.00;;
69534;SDS011;56754;51.568;5.048;2023-06-22T00:52:11;4.75;;;1.98;;
69534;SDS011;56754;51.568;5.048;2023-06-22T00:54:37;4.32;;;2.10;;
69534;SDS011;56754;51.568;5.048;2023-06-22T00:57:03;4.40;;;2.10;;
69534;SDS011;56754;51.568;5.048;2023-06-22T00:59:29;5.60;;;2.17;;
69534;SDS011;56754;51.568;5.048;2023-06-22T01:01:55;4.70;;;2.20;;
69534;SDS011;56754;51.568;5.048;2023-06-22T01:04:24;4.67;;;2.30;;
69534;SDS011;56754;51.568;5.048;2023-06-22T01:07:02;5.13;;;2.03;;
69534;SDS011;56754;51.568;5.048;2023-06-22T01:09:47;4.85;;;2.35;;
69534;SDS011;56754;51.568;5.048;2023-06-22T01:12:19;5.10;;;2.60;;
69534;SDS011;56754;51.568;5.048;2023-06-22T01:14:54;4.18;;;2.10;;
69534;SDS011;56754;51.568;5.048;2023-06-22T01:17:27;4.40;;;2.20;;
69534;SDS011;56754;51.568;5.048;2023-06-22T01:19:54;5.13;;;2.63;;
69534;SDS011;56754;51.568;5.048;2023-06-22T01:22:20;4.85;;;2.22;;
69534;SDS011;56754;51.568;5.048;2023-06-22T01:25:07;4.78;;;2.40;;
69534;SDS011;56754;51.568;5.048;2023-06-22T01:30:21;4.97;;;2.30;;
69534;SDS011;56754;51.568;5.048;2023-06-22T01:32:49;4.90;;;2.13;;
69534;SDS011;56754;51.568;5.048;2023-06-22T01:35:15;4.95;;;2.38;;
69534;SDS011;56754;51.568;5.048;2023-06-22T01:37:42;5.00;;;2.50;;
69534;SDS011;56754;51.568;5.048;2023-06-22T01:40:09;4.82;;;2.40;;
69534;SDS011;56754;51.568;5.048;2023-06-22T01:42:35;5.60;;;2.50;;
69534;SDS011;56754;51.568;5.048;2023-06-22T01:45:02;5.93;;;2.70;;
69534;SDS011;56754;51.568;5.048;2023-06-22T01:47:28;4.57;;;2.50;;
69534;SDS011;56754;51.568;5.048;2023-06-22T01:49:54;4.80;;;2.42;;
69534;SDS011;56754;51.568;5.048;2023-06-22T01:52:20;4.80;;;2.40;;
69534;SDS011;56754;51.568;5.048;2023-06-22T01:54:45;6.22;;;2.60;;
69534;SDS011;56754;51.568;5.048;2023-06-22T01:57:11;5.50;;;2.60;;
69534;SDS011;56754;51.568;5.048;2023-06-22T01:59:37;5.03;;;2.73;;
69534;SDS011;56754;51.568;5.048;2023-06-22T02:02:22;6.50;;;3.08;;
69534;SDS011;56754;51.568;5.048;2023-06-22T02:04:59;5.57;;;2.83;;
69534;SDS011;56754;51.568;5.048;2023-06-22T02:07:31;5.93;;;3.30;;
69534;SDS011;56754;51.568;5.048;2023-06-22T02:10:00;6.20;;;3.33;;
69534;SDS011;56754;51.568;5.048;2023-06-22T02:12:28;5.95;;;3.05;;
69534;SDS011;56754;51.568;5.048;2023-06-22T02:14:55;6.35;;;3.17;;
69534;SDS011;56754;51.568;5.048;2023-06-22T02:17:21;6.53;;;3.45;;
69534;SDS011;56754;51.568;5.048;2023-06-22T02:19:48;6.85;;;3.45;;
69534;SDS011;56754;51.568;5.048;2023-06-22T02:22:13;7.30;;;3.40;;
69534;SDS011;56754;51.568;5.048;2023-06-22T02:24:39;7.17;;;3.53;;
69534;SDS011;56754;51.568;5.048;2023-06-22T02:27:04;5.70;;;3.30;;
69534;SDS011;56754;51.568;5.048;2023-06-22T02:29:30;6.37;;;3.70;;
69534;SDS011;56754;51.568;5.048;2023-06-22T02:31:55;6.63;;;3.33;;
69534;SDS011;56754;51.568;5.048;2023-06-22T02:34:21;5.77;;;3.20;;
69534;SDS011;56754;51.568;5.048;2023-06-22T02:36:48;5.32;;;3.30;;
69534;SDS011;56754;51.568;5.048;2023-06-22T02:39:14;6.23;;;3.50;;
69534;SDS011;56754;51.568;5.048;2023-06-22T02:41:39;6.70;;;3.25;;
69534;SDS011;56754;51.568;5.048;2023-06-22T02:44:05;6.70;;;3.80;;
69534;SDS011;56754;51.568;5.048;2023-06-22T02:46:30;6.10;;;3.67;;
69534;SDS011;56754;51.568;5.048;2023-06-22T02:48:55;6.57;;;3.97;;
69534;SDS011;56754;51.568;5.048;2023-06-22T02:51:20;6.30;;;3.63;;
69534;SDS011;56754;51.568;5.048;2023-06-22T02:53:46;6.13;;;3.80;;
69534;SDS011;56754;51.568;5.048;2023-06-22T02:56:11;6.33;;;4.10;;
69534;SDS011;56754;51.568;5.048;2023-06-22T02:58:36;6.53;;;4.07;;
69534;SDS011;56754;51.568;5.048;2023-06-22T03:01:02;6.73;;;3.63;;
69534;SDS011;56754;51.568;5.048;2023-06-22T03:03:27;6.40;;;3.50;;
69534;SDS011;56754;51.568;5.048;2023-06-22T03:05:52;6.20;;;3.90;;
69534;SDS011;56754;51.568;5.048;2023-06-22T03:08:17;6.00;;;3.70;;
69534;SDS011;56754;51.568;5.048;2023-06-22T03:10:43;7.77;;;4.23;;
69534;SDS011;56754;51.568;5.048;2023-06-22T03:13:08;9.27;;;4.40;;
69534;SDS011;56754;51.568;5.048;2023-06-22T03:15:33;6.23;;;3.70;;
69534;SDS011;56754;51.568;5.048;2023-06-22T03:17:59;7.33;;;4.57;;
69534;SDS011;56754;51.568;5.048;2023-06-22T03:20:24;6.70;;;4.20;;
69534;SDS011;56754;51.568;5.048;2023-06-22T03:22:49;7.20;;;3.80;;
69534;SDS011;56754;51.568;5.048;2023-06-22T03:25:15;5.83;;;3.57;;
69534;SDS011;56754;51.568;5.048;2023-06-22T03:27:40;6.60;;;3.97;;
69534;SDS011;56754;51.568;5.048;2023-06-22T03:30:07;6.03;;;3.60;;
69534;SDS011;56754;51.568;5.048;2023-06-22T03:32:34;6.90;;;4.22;;
69534;SDS011;56754;51.568;5.048;2023-06-22T03:34:59;6.87;;;4.10;;
69534;SDS011;56754;51.568;5.048;2023-06-22T03:37:25;6.80;;;3.93;;
69534;SDS011;56754;51.568;5.048;2023-06-22T03:39:51;6.82;;;3.70;;
69534;SDS011;56754;51.568;5.048;2023-06-22T03:42:16;6.60;;;4.00;;
69534;SDS011;56754;51.568;5.048;2023-06-22T03:44:42;6.30;;;3.97;;
69534;SDS011;56754;51.568;5.048;2023-06-22T03:47:07;8.23;;;4.90;;
69534;SDS011;56754;51.568;5.048;2023-06-22T03:49:33;6.93;;;4.10;;
69534;SDS011;56754;51.568;5.048;2023-06-22T03:51:58;6.43;;;3.73;;
69534;SDS011;56754;51.568;5.048;2023-06-22T03:54:24;6.97;;;4.25;;
69534;SDS011;56754;51.568;5.048;2023-06-22T03:56:49;6.13;;;3.87;;
69534;SDS011;56754;51.568;5.048;2023-06-22T03:59:15;6.17;;;4.00;;
69534;SDS011;56754;51.568;5.048;2023-06-22T04:01:40;7.83;;;4.20;;
69534;SDS011;56754;51.568;5.048;2023-06-22T04:04:05;7.03;;;4.00;;
69534;SDS011;56754;51.568;5.048;2023-06-22T04:06:31;9.07;;;3.93;;
69534;SDS011;56754;51.568;5.048;2023-06-22T04:08:56;7.63;;;3.87;;
69534;SDS011;56754;51.568;5.048;2023-06-22T04:11:21;6.30;;;3.80;;
69534;SDS011;56754;51.568;5.048;2023-06-22T04:13:46;6.97;;;4.30;;
69534;SDS011;56754;51.568;5.048;2023-06-22T04:16:12;7.07;;;3.93;;
69534;SDS011;56754;51.568;5.048;2023-06-22T04:18:37;6.13;;;4.10;;
69534;SDS011;56754;51.568;5.048;2023-06-22T04:21:02;7.93;;;4.10;;
69534;SDS011;56754;51.568;5.048;2023-06-22T04:23:28;7.10;;;4.40;;
69534;SDS011;56754;51.568;5.048;2023-06-22T04:25:53;6.87;;;3.80;;
69534;SDS011;56754;51.568;5.048;2023-06-22T04:28:19;6.70;;;4.10;;
69534;SDS011;56754;51.568;5.048;2023-06-22T04:30:44;6.70;;;3.87;;
69534;SDS011;56754;51.568;5.048;2023-06-22T04:33:09;7.30;;;4.03;;
69534;SDS011;56754;51.568;5.048;2023-06-22T04:35:35;7.70;;;4.55;;
69534;SDS011;56754;51.568;5.048;2023-06-22T04:38:00;8.33;;;4.93;;
69534;SDS011;56754;51.568;5.048;2023-06-22T04:40:25;6.13;;;3.83;;
69534;SDS011;56754;51.568;5.048;2023-06-22T04:42:50;6.70;;;4.20;;
69534;SDS011;56754;51.568;5.048;2023-06-22T04:45:16;7.77;;;4.17;;
69534;SDS011;56754;51.568;5.048;2023-06-22T04:47:41;8.53;;;4.93;;
69534;SDS011;56754;51.568;5.048;2023-06-22T04:50:06;6.60;;;4.00;;
69534;SDS011;56754;51.568;5.048;2023-06-22T04:52:32;9.30;;;4.03;;
69534;SDS011;56754;51.568;5.048;2023-06-22T04:54:57;6.55;;;3.88;;
69534;SDS011;56754;51.568;5.048;2023-06-22T04:57:23;7.30;;;3.80;;
69534;SDS011;56754;51.568;5.048;2023-06-22T04:59:48;9.20;;;4.00;;
69534;SDS011;56754;51.568;5.048;2023-06-22T05:02:13;7.23;;;4.00;;
69534;SDS011;56754;51.568;5.048;2023-06-22T05:04:38;6.03;;;3.33;;
69534;SDS011;56754;51.568;5.048;2023-06-22T05:07:04;7.73;;;4.13;;
69534;SDS011;56754;51.568;5.048;2023-06-22T05:09:30;6.67;;;3.50;;
69534;SDS011;56754;51.568;5.048;2023-06-22T05:11:55;6.33;;;3.80;;
69534;SDS011;56754;51.568;5.048;2023-06-22T05:14:21;6.50;;;3.90;;
69534;SDS011;56754;51.568;5.048;2023-06-22T05:16:46;7.20;;;3.87;;
69534;SDS011;56754;51.568;5.048;2023-06-22T05:19:11;6.63;;;3.97;;
69534;SDS011;56754;51.568;5.048;2023-06-22T05:21:37;8.20;;;3.50;;
69534;SDS011;56754;51.568;5.048;2023-06-22T05:24:03;6.63;;;3.53;;
69534;SDS011;56754;51.568;5.048;2023-06-22T05:26:29;7.43;;;4.03;;
69534;SDS011;56754;51.568;5.048;2023-06-22T05:28:55;7.00;;;3.83;;
69534;SDS011;56754;51.568;5.048;2023-06-22T05:31:21;7.40;;;3.93;;
69534;SDS011;56754;51.568;5.048;2023-06-22T05:33:47;6.68;;;3.88;;
69534;SDS011;56754;51.568;5.048;2023-06-22T05:36:13;6.88;;;3.65;;
69534;SDS011;56754;51.568;5.048;2023-06-22T05:38:39;6.57;;;3.60;;
69534;SDS011;56754;51.568;5.048;2023-06-22T05:41:05;5.78;;;3.53;;
69534;SDS011;56754;51.568;5.048;2023-06-22T05:43:30;5.93;;;3.23;;
69534;SDS011;56754;51.568;5.048;2023-06-22T05:45:56;6.05;;;3.30;;
69534;SDS011;56754;51.568;5.048;2023-06-22T05:48:22;6.32;;;3.45;;
69534;SDS011;56754;51.568;5.048;2023-06-22T05:50:47;6.30;;;3.53;;
69534;SDS011;56754;51.568;5.048;2023-06-22T05:53:13;5.63;;;3.20;;
69534;SDS011;56754;51.568;5.048;2023-06-22T05:55:38;5.50;;;3.22;;
69534;SDS011;56754;51.568;5.048;2023-06-22T05:58:04;7.30;;;3.60;;
69534;SDS011;56754;51.568;5.048;2023-06-22T06:00:29;6.20;;;3.57;;
69534;SDS011;56754;51.568;5.048;2023-06-22T06:02:55;9.10;;;4.10;;
69534;SDS011;56754;51.568;5.048;2023-06-22T06:05:20;9.55;;;4.53;;
69534;SDS011;56754;51.568;5.048;2023-06-22T06:07:46;8.07;;;4.57;;
69534;SDS011;56754;51.568;5.048;2023-06-22T06:10:11;6.67;;;4.00;;
69534;SDS011;56754;51.568;5.048;2023-06-22T06:12:37;7.15;;;3.55;;
69534;SDS011;56754;51.568;5.048;2023-06-22T06:15:03;7.47;;;3.80;;
69534;SDS011;56754;51.568;5.048;2023-06-22T06:17:29;6.50;;;3.72;;
69534;SDS011;56754;51.568;5.048;2023-06-22T06:19:55;6.30;;;4.00;;
69534;SDS011;56754;51.568;5.048;2023-06-22T06:22:20;6.72;;;4.07;;
69534;SDS011;56754;51.568;5.048;2023-06-22T06:24:45;7.17;;;4.67;;
69534;SDS011;56754;51.568;5.048;2023-06-22T06:27:11;7.40;;;4.03;;
69534;SDS011;56754;51.568;5.048;2023-06-22T06:29:36;6.47;;;3.90;;
69534;SDS011;56754;51.568;5.048;2023-06-22T06:32:01;6.63;;;3.70;;
69534;SDS011;56754;51.568;5.048;2023-06-22T06:34:27;7.93;;;3.70;;
69534;SDS011;56754;51.568;5.048;2023-06-22T06:36:52;9.97;;;4.67;;
69534;SDS011;56754;51.568;5.048;2023-06-22T06:39:17;7.10;;;4.30;;
69534;SDS011;56754;51.568;5.048;2023-06-22T06:41:43;8.07;;;4.80;;
69534;SDS011;56754;51.568;5.048;2023-06-22T06:44:08;7.73;;;4.60;;
69534;SDS011;56754;51.568;5.048;2023-06-22T06:46:34;6.53;;;3.83;;
69534;SDS011;56754;51.568;5.048;2023-06-22T06:48:59;6.90;;;4.57;;
69534;SDS011;56754;51.568;5.048;2023-06-22T06:51:24;6.27;;;3.87;;
69534;SDS011;56754;51.568;5.048;2023-06-22T06:53:50;9.77;;;4.90;;
69534;SDS011;56754;51.568;5.048;2023-06-22T06:56:15;7.27;;;4.33;;
69534;SDS011;56754;51.568;5.048;2023-06-22T06:58:41;7.75;;;4.43;;
69534;SDS011;56754;51.568;5.048;2023-06-22T07:01:06;6.80;;;3.93;;
69534;SDS011;56754;51.568;5.048;2023-06-22T07:03:32;7.83;;;3.83;;
69534;SDS011;56754;51.568;5.048;2023-06-22T07:05:57;7.05;;;3.50;;
69534;SDS011;56754;51.568;5.048;2023-06-22T07:08:22;7.13;;;3.77;;
69534;SDS011;56754;51.568;5.048;2023-06-22T07:10:47;6.70;;;4.50;;
69534;SDS011;56754;51.568;5.048;2023-06-22T07:13:13;6.47;;;3.87;;
69534;SDS011;56754;51.568;5.048;2023-06-22T07:15:38;6.50;;;3.13;;
69534;SDS011;56754;51.568;5.048;2023-06-22T07:18:03;6.13;;;3.40;;
69534;SDS011;56754;51.568;5.048;2023-06-22T07:20:29;6.23;;;3.57;;
69534;SDS011;56754;51.568;5.048;2023-06-22T07:22:54;4.93;;;2.70;;
69534;SDS011;56754;51.568;5.048;2023-06-22T07:25:20;4.47;;;2.70;;
69534;SDS011;56754;51.568;5.048;2023-06-22T07:27:46;4.37;;;2.50;;
69534;SDS011;56754;51.568;5.048;2023-06-22T07:30:33;4.38;;;2.30;;
69534;SDS011;56754;51.568;5.048;2023-06-22T07:32:59;4.88;;;2.38;;
69534;SDS011;56754;51.568;5.048;2023-06-22T07:35:25;5.00;;;2.67;;
69534;SDS011;56754;51.568;5.048;2023-06-22T07:37:51;4.93;;;2.67;;
69534;SDS011;56754;51.568;5.048;2023-06-22T07:40:16;5.50;;;2.70;;
69534;SDS011;56754;51.568;5.048;2023-06-22T07:42:41;5.13;;;3.10;;
69534;SDS011;56754;51.568;5.048;2023-06-22T07:45:07;6.20;;;2.80;;
69534;SDS011;56754;51.568;5.048;2023-06-22T07:47:32;5.45;;;2.88;;
69534;SDS011;56754;51.568;5.048;2023-06-22T07:49:58;5.03;;;2.90;;
69534;SDS011;56754;51.568;5.048;2023-06-22T07:52:24;5.63;;;3.10;;
69534;SDS011;56754;51.568;5.048;2023-06-22T07:54:49;5.87;;;3.37;;
69534;SDS011;56754;51.568;5.048;2023-06-22T07:57:15;5.37;;;3.27;;
69534;SDS011;56754;51.568;5.048;2023-06-22T07:59:40;5.77;;;3.40;;
69534;SDS011;56754;51.568;5.048;2023-06-22T08:02:05;6.03;;;3.37;;
69534;SDS011;56754;51.568;5.048;2023-06-22T08:04:31;5.37;;;3.33;;
69534;SDS011;56754;51.568;5.048;2023-06-22T08:06:56;7.73;;;3.77;;
69534;SDS011;56754;51.568;5.048;2023-06-22T08:09:21;6.10;;;3.50;;
69534;SDS011;56754;51.568;5.048;2023-06-22T08:11:48;5.68;;;3.40;;
69534;SDS011;56754;51.568;5.048;2023-06-22T08:14:13;5.17;;;3.37;;
69534;SDS011;56754;51.568;5.048;2023-06-22T08:16:38;6.03;;;2.90;;
69534;SDS011;56754;51.568;5.048;2023-06-22T08:19:04;6.57;;;2.97;;
69534;SDS011;56754;51.568;5.048;2023-06-22T08:21:29;6.00;;;3.60;;
69534;SDS011;56754;51.568;5.048;2023-06-22T08:23:54;6.37;;;3.63;;
69534;SDS011;56754;51.568;5.048;2023-06-22T08:26:20;5.30;;;2.63;;
69534;SDS011;56754;51.568;5.048;2023-06-22T08:28:45;6.83;;;3.50;;
69534;SDS011;56754;51.568;5.048;2023-06-22T08:31:11;5.43;;;2.80;;
69534;SDS011;56754;51.568;5.048;2023-06-22T08:33:36;6.67;;;2.90;;
69534;SDS011;56754;51.568;5.048;2023-06-22T08:36:01;6.00;;;3.53;;
69534;SDS011;56754;51.568;5.048;2023-06-22T08:38:27;6.03;;;3.10;;
69534;SDS011;56754;51.568;5.048;2023-06-22T08:40:52;7.70;;;3.37;;
69534;SDS011;56754;51.568;5.048;2023-06-22T08:43:18;6.10;;;3.72;;
69534;SDS011;56754;51.568;5.048;2023-06-22T08:45:43;5.40;;;3.00;;
69534;SDS011;56754;51.568;5.048;2023-06-22T08:48:08;6.90;;;3.57;;
69534;SDS011;56754;51.568;5.048;2023-06-22T08:50:33;5.90;;;3.60;;
69534;SDS011;56754;51.568;5.048;2023-06-22T08:52:59;5.90;;;3.10;;
69534;SDS011;56754;51.568;5.048;2023-06-22T08:55:24;5.70;;;3.20;;
69534;SDS011;56754;51.568;5.048;2023-06-22T08:57:49;7.50;;;4.00;;
69534;SDS011;56754;51.568;5.048;2023-06-22T09:00:15;5.95;;;3.60;;
69534;SDS011;56754;51.568;5.048;2023-06-22T09:02:41;6.53;;;3.80;;
69534;SDS011;56754;51.568;5.048;2023-06-22T09:05:06;6.43;;;3.43;;
69534;SDS011;56754;51.568;5.048;2023-06-22T09:07:31;6.22;;;4.15;;
69534;SDS011;56754;51.568;5.048;2023-06-22T09:09:57;6.80;;;3.87;;
69534;SDS011;56754;51.568;5.048;2023-06-22T09:12:22;6.77;;;3.93;;
69534;SDS011;56754;51.568;5.048;2023-06-22T09:14:48;6.63;;;3.90;;
69534;SDS011;56754;51.568;5.048;2023-06-22T09:17:13;6.18;;;3.80;;
69534;SDS011;56754;51.568;5.048;2023-06-22T09:19:38;6.97;;;3.83;;
69534;SDS011;56754;51.568;5.048;2023-06-22T09:22:04;7.20;;;3.93;;
69534;SDS011;56754;51.568;5.048;2023-06-22T09:24:29;6.88;;;4.18;;
69534;SDS011;56754;51.568;5.048;2023-06-22T09:26:55;8.03;;;3.90;;
69534;SDS011;56754;51.568;5.048;2023-06-22T09:29:20;6.97;;;4.40;;
69534;SDS011;56754;51.568;5.048;2023-06-22T09:31:45;9.40;;;4.27;;
69534;SDS011;56754;51.568;5.048;2023-06-22T09:34:11;6.73;;;4.10;;
69534;SDS011;56754;51.568;5.048;2023-06-22T09:36:36;6.70;;;4.10;;
69534;SDS011;56754;51.568;5.048;2023-06-22T09:39:01;6.77;;;3.50;;
69534;SDS011;56754;51.568;5.048;2023-06-22T09:41:27;6.72;;;4.03;;
69534;SDS011;56754;51.568;5.048;2023-06-22T09:43:52;6.53;;;3.80;;
69534;SDS011;56754;51.568;5.048;2023-06-22T09:46:17;7.73;;;4.10;;
69534;SDS011;56754;51.568;5.048;2023-06-22T09:48:43;6.80;;;3.93;;
69534;SDS011;56754;51.568;5.048;2023-06-22T09:51:08;7.03;;;3.83;;
69534;SDS011;56754;51.568;5.048;2023-06-22T09:53:34;11.15;;;3.83;;
69534;SDS011;56754;51.568;5.048;2023-06-22T09:55:59;7.00;;;3.97;;
69534;SDS011;56754;51.568;5.048;2023-06-22T09:58:25;8.55;;;3.67;;
69534;SDS011;56754;51.568;5.048;2023-06-22T10:00:51;6.50;;;3.87;;
69534;SDS011;56754;51.568;5.048;2023-06-22T10:03:17;6.25;;;4.00;;
69534;SDS011;56754;51.568;5.048;2023-06-22T10:05:42;7.00;;;3.80;;
69534;SDS011;56754;51.568;5.048;2023-06-22T10:08:08;7.77;;;4.20;;
69534;SDS011;56754;51.568;5.048;2023-06-22T10:10:33;9.43;;;3.77;;
69534;SDS011;56754;51.568;5.048;2023-06-22T10:13:06;7.30;;;4.17;;
69534;SDS011;56754;51.568;5.048;2023-06-22T10:15:33;6.57;;;3.83;;
69534;SDS011;56754;51.568;5.048;2023-06-22T10:17:58;5.87;;;3.80;;
69534;SDS011;56754;51.568;5.048;2023-06-22T10:20:24;7.70;;;3.90;;
69534;SDS011;56754;51.568;5.048;2023-06-22T10:22:49;6.53;;;3.60;;
69534;SDS011;56754;51.568;5.048;2023-06-22T10:25:14;7.00;;;4.07;;
69534;SDS011;56754;51.568;5.048;2023-06-22T10:27:40;5.50;;;3.40;;
69534;SDS011;56754;51.568;5.048;2023-06-22T10:30:06;5.90;;;3.40;;
69534;SDS011;56754;51.568;5.048;2023-06-22T10:32:35;6.50;;;3.70;;
69534;SDS011;56754;51.568;5.048;2023-06-22T10:35:00;8.47;;;3.57;;
69534;SDS011;56754;51.568;5.048;2023-06-22T10:37:25;7.10;;;3.55;;
69534;SDS011;56754;51.568;5.048;2023-06-22T10:39:51;5.60;;;3.27;;
69534;SDS011;56754;51.568;5.048;2023-06-22T10:42:16;8.33;;;3.87;;
69534;SDS011;56754;51.568;5.048;2023-06-22T10:44:41;6.27;;;3.40;;
69534;SDS011;56754;51.568;5.048;2023-06-22T10:47:07;6.10;;;3.13;;
69534;SDS011;56754;51.568;5.048;2023-06-22T10:49:32;7.03;;;3.50;;
69534;SDS011;56754;51.568;5.048;2023-06-22T10:51:57;5.70;;;3.10;;
69534;SDS011;56754;51.568;5.048;2023-06-22T10:54:23;6.33;;;3.20;;
69534;SDS011;56754;51.568;5.048;2023-06-22T10:56:48;5.83;;;3.47;;
69534;SDS011;56754;51.568;5.048;2023-06-22T10:59:13;5.57;;;3.30;;
69534;SDS011;56754;51.568;5.048;2023-06-22T11:01:39;6.83;;;3.20;;
69534;SDS011;56754;51.568;5.048;2023-06-22T11:04:04;5.40;;;3.10;;
69534;SDS011;56754;51.568;5.048;2023-06-22T11:06:29;5.40;;;3.60;;
69534;SDS011;56754;51.568;5.048;2023-06-22T11:08:55;9.10;;;3.80;;
69534;SDS011;56754;51.568;5.048;2023-06-22T11:11:20;4.80;;;2.90;;
69534;SDS011;56754;51.568;5.048;2023-06-22T11:13:45;6.70;;;3.80;;
69534;SDS011;56754;51.568;5.048;2023-06-22T11:16:11;5.77;;;3.10;;
69534;SDS011;56754;51.568;5.048;2023-06-22T11:18:36;7.20;;;3.53;;
69534;SDS011;56754;51.568;5.048;2023-06-22T11:21:02;6.47;;;3.53;;
69534;SDS011;56754;51.568;5.048;2023-06-22T11:23:27;6.67;;;3.23;;
69534;SDS011;56754;51.568;5.048;2023-06-22T11:25:54;7.50;;;3.90;;
69534;SDS011;56754;51.568;5.048;2023-06-22T11:28:19;7.20;;;4.23;;
69534;SDS011;56754;51.568;5.048;2023-06-22T11:30:45;5.33;;;3.27;;
69534;SDS011;56754;51.568;5.048;2023-06-22T11:33:10;6.23;;;3.70;;
69534;SDS011;56754;51.568;5.048;2023-06-22T11:35:36;6.20;;;3.50;;
69534;SDS011;56754;51.568;5.048;2023-06-22T11:38:01;7.87;;;4.10;;
69534;SDS011;56754;51.568;5.048;2023-06-22T11:40:26;8.10;;;3.87;;
69534;SDS011;56754;51.568;5.048;2023-06-22T11:42:52;9.40;;;3.47;;
69534;SDS011;56754;51.568;5.048;2023-06-22T11:45:17;7.07;;;3.43;;
69534;SDS011;56754;51.568;5.048;2023-06-22T11:47:44;5.73;;;3.87;;
69534;SDS011;56754;51.568;5.048;2023-06-22T11:50:09;8.57;;;4.30;;
69534;SDS011;56754;51.568;5.048;2023-06-22T11:52:35;9.00;;;4.13;;
69534;SDS011;56754;51.568;5.048;2023-06-22T11:55:00;7.20;;;4.13;;
69534;SDS011;56754;51.568;5.048;2023-06-22T11:57:25;6.53;;;3.78;;
69534;SDS011;56754;51.568;5.048;2023-06-22T11:59:51;7.50;;;4.00;;
69534;SDS011;56754;51.568;5.048;2023-06-22T12:02:16;8.03;;;3.57;;
69534;SDS011;56754;51.568;5.048;2023-06-22T12:04:41;7.37;;;3.87;;
69534;SDS011;56754;51.568;5.048;2023-06-22T12:07:07;6.17;;;3.70;;
69534;SDS011;56754;51.568;5.048;2023-06-22T12:09:32;8.40;;;3.73;;
69534;SDS011;56754;51.568;5.048;2023-06-22T12:12:00;8.27;;;4.07;;
69534;SDS011;56754;51.568;5.048;2023-06-22T12:14:26;8.75;;;4.03;;
69534;SDS011;56754;51.568;5.048;2023-06-22T12:16:51;7.40;;;4.43;;
69534;SDS011;56754;51.568;5.048;2023-06-22T12:19:16;7.07;;;4.50;;
69534;SDS011;56754;51.568;5.048;2023-06-22T12:21:42;8.97;;;4.40;;
69534;SDS011;56754;51.568;5.048;2023-06-22T12:24:07;7.60;;;4.57;;
69534;SDS011;56754;51.568;5.048;2023-06-22T12:26:32;9.33;;;5.50;;
69534;SDS011;56754;51.568;5.048;2023-06-22T12:28:58;8.80;;;5.47;;
69534;SDS011;56754;51.568;5.048;2023-06-22T12:31:23;8.53;;;5.23;;
69534;SDS011;56754;51.568;5.048;2023-06-22T12:33:48;11.90;;;5.47;;
69534;SDS011;56754;51.568;5.048;2023-06-22T12:36:14;9.25;;;5.60;;
69534;SDS011;56754;51.568;5.048;2023-06-22T12:38:39;8.23;;;5.13;;
69534;SDS011;56754;51.568;5.048;2023-06-22T12:41:05;10.23;;;5.33;;
69534;SDS011;56754;51.568;5.048;2023-06-22T12:43:30;8.65;;;5.03;;
69534;SDS011;56754;51.568;5.048;2023-06-22T12:45:55;10.23;;;4.83;;
69534;SDS011;56754;51.568;5.048;2023-06-22T12:48:21;9.57;;;5.67;;
69534;SDS011;56754;51.568;5.048;2023-06-22T12:50:47;9.35;;;5.15;;
69534;SDS011;56754;51.568;5.048;2023-06-22T12:53:12;8.47;;;4.80;;
69534;SDS011;56754;51.568;5.048;2023-06-22T12:55:38;8.93;;;5.27;;
69534;SDS011;56754;51.568;5.048;2023-06-22T12:58:03;11.37;;;5.27;;
69534;SDS011;56754;51.568;5.048;2023-06-22T13:00:28;8.33;;;5.60;;
69534;SDS011;56754;51.568;5.048;2023-06-22T13:02:54;10.57;;;5.67;;
69534;SDS011;56754;51.568;5.048;2023-06-22T13:05:19;9.90;;;6.13;;
69534;SDS011;56754;51.568;5.048;2023-06-22T13:07:44;8.55;;;4.72;;
69534;SDS011;56754;51.568;5.048;2023-06-22T13:10:10;11.87;;;5.83;;
69534;SDS011;56754;51.568;5.048;2023-06-22T13:12:35;9.77;;;6.10;;
69534;SDS011;56754;51.568;5.048;2023-06-22T13:15:00;10.10;;;6.20;;
69534;SDS011;56754;51.568;5.048;2023-06-22T13:17:26;9.77;;;6.27;;
69534;SDS011;56754;51.568;5.048;2023-06-22T13:19:51;11.07;;;6.97;;
69534;SDS011;56754;51.568;5.048;2023-06-22T13:22:32;8.80;;;5.45;;
69534;SDS011;56754;51.568;5.048;2023-06-22T13:24:58;10.45;;;6.80;;
69534;SDS011;56754;51.568;5.048;2023-06-22T13:27:24;9.63;;;6.13;;
69534;SDS011;56754;51.568;5.048;2023-06-22T13:29:50;10.93;;;6.40;;
69534;SDS011;56754;51.568;5.048;2023-06-22T13:32:16;10.03;;;7.03;;
69534;SDS011;56754;51.568;5.048;2023-06-22T13:34:42;11.93;;;8.40;;
69534;SDS011;56754;51.568;5.048;2023-06-22T13:37:10;10.00;;;7.00;;
69534;SDS011;56754;51.568;5.048;2023-06-22T13:39:35;8.80;;;6.43;;
69534;SDS011;56754;51.568;5.048;2023-06-22T13:42:00;9.17;;;6.20;;
69534;SDS011;56754;51.568;5.048;2023-06-22T13:44:26;10.07;;;6.83;;
69534;SDS011;56754;51.568;5.048;2023-06-22T13:46:51;11.23;;;7.22;;
69534;SDS011;56754;51.568;5.048;2023-06-22T13:49:16;9.47;;;6.30;;
69534;SDS011;56754;51.568;5.048;2023-06-22T13:51:42;9.33;;;6.33;;
69534;SDS011;56754;51.568;5.048;2023-06-22T13:54:07;8.87;;;5.80;;
69534;SDS011;56754;51.568;5.048;2023-06-22T13:56:33;8.48;;;5.88;;
69534;SDS011;56754;51.568;5.048;2023-06-22T13:58:58;8.83;;;6.03;;
69534;SDS011;56754;51.568;5.048;2023-06-22T14:01:23;10.17;;;6.80;;
69534;SDS011;56754;51.568;5.048;2023-06-22T14:03:49;10.63;;;6.57;;
69534;SDS011;56754;51.568;5.048;2023-06-22T14:06:14;9.50;;;6.87;;
69534;SDS011;56754;51.568;5.048;2023-06-22T14:08:39;11.17;;;6.93;;
69534;SDS011;56754;51.568;5.048;2023-06-22T14:11:05;10.37;;;7.40;;
69534;SDS011;56754;51.568;5.048;2023-06-22T14:13:30;10.57;;;7.77;;
69534;SDS011;56754;51.568;5.048;2023-06-22T14:15:56;10.40;;;7.43;;
69534;SDS011;56754;51.568;5.048;2023-06-22T14:18:21;11.07;;;7.90;;
69534;SDS011;56754;51.568;5.048;2023-06-22T14:20:46;9.63;;;7.60;;
69534;SDS011;56754;51.568;5.048;2023-06-22T14:23:13;11.90;;;8.60;;
69534;SDS011;56754;51.568;5.048;2023-06-22T14:25:39;12.60;;;8.43;;
69534;SDS011;56754;51.568;5.048;2023-06-22T14:28:05;10.35;;;7.43;;
69534;SDS011;56754;51.568;5.048;2023-06-22T14:30:30;9.63;;;6.83;;
69534;SDS011;56754;51.568;5.048;2023-06-22T14:32:55;9.50;;;7.23;;
69534;SDS011;56754;51.568;5.048;2023-06-22T14:35:21;10.17;;;6.60;;
69534;SDS011;56754;51.568;5.048;2023-06-22T14:37:46;10.23;;;7.35;;
69534;SDS011;56754;51.568;5.048;2023-06-22T14:40:11;10.33;;;7.83;;